createdAt,value
2023-02-04T00:00:32.210Z,8.87
2023-02-04T00:01:31.862Z,8.83
2023-02-04T00:02:31.919Z,8.81
2023-02-04T00:03:31.839Z,8.81
2023-02-04T00:04:31.823Z,8.86
2023-02-04T00:05:31.863Z,8.87
2023-02-04T00:06:31.802Z,8.84
2023-02-04T00:07:31.804Z,8.84
2023-02-04T00:08:31.774Z,8.83
2023-02-04T00:09:31.761Z,8.83
2023-02-04T00:10:32.193Z,8.83
2023-02-04T00:11:31.721Z,8.84
2023-02-04T00:12:31.710Z,8.81
2023-02-04T00:13:31.711Z,8.83
2023-02-04T00:14:31.693Z,8.83
2023-02-04T00:15:31.710Z,8.86
2023-02-04T00:16:31.680Z,8.78
2023-02-04T00:17:31.676Z,8.81
2023-02-04T00:18:31.632Z,8.79
2023-02-04T00:19:31.631Z,8.76
2023-02-04T00:20:31.935Z,8.79
2023-02-04T00:21:31.623Z,8.78
2023-02-04T00:22:31.581Z,8.73
2023-02-04T00:23:31.564Z,8.73
2023-02-04T00:24:31.572Z,8.78
2023-02-04T00:25:31.539Z,8.71
2023-02-04T00:26:31.543Z,8.71
2023-02-04T00:27:31.531Z,8.73
2023-02-04T00:28:31.492Z,8.73
2023-02-04T00:29:31.487Z,8.69
2023-02-04T00:30:31.877Z,8.69
2023-02-04T00:31:31.539Z,8.73
2023-02-04T00:32:31.453Z,8.72
2023-02-04T00:33:31.430Z,8.72
2023-02-04T00:34:31.456Z,8.73
2023-02-04T00:35:31.398Z,8.69
2023-02-04T00:36:31.407Z,8.71
2023-02-04T00:37:31.375Z,8.68
2023-02-04T00:38:31.367Z,8.71
2023-02-04T00:39:31.353Z,8.73
2023-02-04T00:40:31.652Z,8.73
2023-02-04T00:41:31.334Z,8.73
2023-02-04T00:42:31.319Z,8.71
2023-02-04T00:43:31.294Z,8.73
2023-02-04T00:44:31.277Z,8.71
2023-02-04T00:45:31.306Z,8.73
2023-02-04T00:46:31.894Z,8.72
2023-02-04T00:47:31.236Z,8.72
2023-02-04T00:48:31.226Z,8.72
2023-02-04T00:49:31.209Z,8.69
2023-02-04T00:50:31.443Z,8.66
2023-02-04T00:51:31.197Z,8.68
2023-02-04T00:52:31.177Z,8.68
2023-02-04T00:53:31.158Z,8.68
2023-02-04T00:54:31.166Z,8.69
2023-02-04T00:55:31.136Z,8.69
2023-02-04T00:56:31.157Z,8.72
2023-02-04T00:57:31.100Z,8.71
2023-02-04T00:58:31.098Z,8.66
2023-02-04T00:59:31.070Z,8.65
2023-02-04T01:00:31.515Z,8.63
2023-02-04T01:01:31.058Z,8.63
2023-02-04T01:02:31.104Z,8.65
2023-02-04T01:03:31.045Z,8.66
2023-02-04T01:04:31.029Z,8.69
2023-02-04T01:05:31.009Z,8.63
2023-02-04T01:06:31.033Z,8.62
2023-02-04T01:07:31.041Z,8.62
2023-02-04T01:08:30.977Z,8.62
2023-02-04T01:09:30.962Z,8.62
2023-02-04T01:10:31.304Z,8.57
2023-02-04T01:11:30.954Z,8.57
2023-02-04T01:12:30.928Z,8.55
2023-02-04T01:13:30.896Z,8.55
2023-02-04T01:14:30.894Z,8.54
2023-02-04T01:15:30.874Z,8.54
2023-02-04T01:16:30.953Z,8.54
2023-02-04T01:17:30.849Z,8.54
2023-02-04T01:18:30.840Z,8.55
2023-02-04T01:19:30.820Z,8.53
2023-02-04T01:20:31.078Z,8.54
2023-02-04T01:21:30.816Z,8.57
2023-02-04T01:22:30.795Z,8.51
2023-02-04T01:23:30.766Z,8.50
2023-02-04T01:24:30.753Z,8.51
2023-02-04T01:25:30.727Z,8.55
2023-02-04T01:26:30.725Z,8.53
2023-02-04T01:28:40.538Z,8.45
2023-02-04T01:29:40.506Z,8.47
2023-02-04T01:30:40.520Z,8.45
2023-02-04T01:31:40.493Z,8.45
2023-02-04T01:32:40.494Z,8.45
2023-02-04T01:33:40.449Z,8.47
2023-02-04T01:34:40.464Z,8.48
2023-02-04T01:35:40.436Z,8.45
2023-02-04T01:36:40.411Z,8.50
2023-02-04T01:37:40.421Z,8.42
2023-02-04T01:38:40.418Z,8.44
2023-02-04T01:39:40.371Z,8.40
2023-02-04T01:40:40.372Z,8.42
2023-02-04T01:41:40.341Z,8.42
2023-02-04T01:42:40.351Z,8.42
2023-02-04T01:43:40.327Z,8.39
2023-02-04T01:44:40.320Z,8.40
2023-02-04T01:45:40.315Z,8.37
2023-02-04T01:46:40.286Z,8.33
2023-02-04T01:47:40.270Z,8.36
2023-02-04T01:48:40.260Z,8.36
2023-02-04T01:49:40.250Z,8.36
2023-02-04T01:50:40.231Z,8.37
2023-02-04T01:51:40.210Z,8.36
2023-02-04T01:52:40.209Z,8.36
2023-02-04T01:53:40.197Z,8.35
2023-02-04T01:54:40.181Z,8.33
2023-02-04T01:55:40.160Z,8.35
2023-02-04T01:56:40.162Z,8.36
2023-02-04T01:57:40.141Z,8.35
2023-02-04T01:58:40.125Z,8.37
2023-02-04T01:59:40.112Z,8.33
2023-02-04T02:00:40.103Z,8.33
2023-02-04T02:01:40.080Z,8.36
2023-02-04T02:02:40.125Z,8.37
2023-02-04T02:03:40.058Z,8.33
2023-02-04T02:04:40.051Z,8.32
2023-02-04T02:05:40.023Z,8.30
2023-02-04T02:06:40.023Z,8.33
2023-02-04T02:07:40.023Z,8.33
2023-02-04T02:08:39.984Z,8.33
2023-02-04T02:09:39.963Z,8.33
2023-02-04T02:10:39.963Z,8.29
2023-02-04T02:11:39.952Z,8.32
2023-02-04T02:12:39.955Z,8.32
2023-02-04T02:13:39.915Z,8.29
2023-02-04T02:14:39.920Z,8.26
2023-02-04T02:15:39.881Z,8.28
2023-02-04T02:16:39.900Z,8.22
2023-02-04T02:17:39.881Z,8.21
2023-02-04T02:18:39.873Z,8.28
2023-02-04T02:19:39.823Z,8.28
2023-02-04T02:20:39.815Z,8.30
2023-02-04T02:21:39.804Z,8.30
2023-02-04T02:22:39.901Z,8.29
2023-02-04T02:23:39.775Z,8.29
2023-02-04T02:24:39.770Z,8.28
2023-02-04T02:25:39.745Z,8.28
2023-02-04T02:26:39.741Z,8.26
2023-02-04T02:27:39.879Z,8.26
2023-02-04T02:28:39.715Z,8.25
2023-02-04T02:29:39.697Z,8.26
2023-02-04T02:30:39.690Z,8.25
2023-02-04T02:31:39.769Z,8.22
2023-02-04T02:32:39.653Z,8.22
2023-02-04T02:33:39.662Z,8.26
2023-02-04T02:34:39.637Z,8.20
2023-02-04T02:35:39.613Z,8.22
2023-02-04T02:36:39.604Z,8.22
2023-02-04T02:37:39.588Z,8.21
2023-02-04T02:38:39.593Z,8.21
2023-02-04T02:39:39.554Z,8.26
2023-02-04T02:40:39.556Z,8.25
2023-02-04T02:41:39.532Z,8.21
2023-02-04T02:42:39.526Z,8.21
2023-02-04T02:43:39.540Z,8.25
2023-02-04T02:44:39.510Z,8.28
2023-02-04T02:45:39.482Z,8.26
2023-02-04T02:46:39.496Z,8.22
2023-02-04T02:47:39.441Z,8.22
2023-02-04T02:48:39.455Z,8.18
2023-02-04T02:49:39.432Z,8.17
2023-02-04T02:50:39.413Z,8.15
2023-02-04T02:51:39.408Z,8.20
2023-02-04T02:52:39.392Z,8.15
2023-02-04T02:53:39.379Z,8.17
2023-02-04T02:54:39.350Z,8.17
2023-02-04T02:55:39.338Z,8.15
2023-02-04T02:56:39.327Z,8.11
2023-02-04T02:57:39.310Z,8.11
2023-02-04T02:58:39.311Z,8.10
2023-02-04T02:59:39.288Z,8.10
2023-02-04T03:00:39.269Z,8.03
2023-02-04T03:01:39.327Z,8.08
2023-02-04T03:02:39.336Z,8.08
2023-02-04T03:03:39.246Z,8.08
2023-02-04T03:04:39.227Z,8.07
2023-02-04T03:05:39.209Z,8.02
2023-02-04T03:06:39.220Z,8.03
2023-02-04T03:07:39.170Z,8.03
2023-02-04T03:08:39.192Z,8.10
2023-02-04T03:09:39.154Z,8.12
2023-02-04T03:10:39.142Z,8.11
2023-02-04T03:11:39.118Z,8.04
2023-02-04T03:12:39.127Z,8.08
2023-02-04T03:13:39.109Z,8.04
2023-02-04T03:14:39.111Z,8.04
2023-02-04T03:15:39.098Z,8.10
2023-02-04T03:16:39.062Z,8.10
2023-02-04T03:17:39.038Z,8.08
2023-02-04T03:18:39.045Z,8.07
2023-02-04T03:19:39.021Z,8.07
2023-02-04T03:20:39.036Z,8.04
2023-02-04T03:21:38.995Z,8.03
2023-02-04T03:22:38.996Z,7.96
2023-02-04T03:23:38.973Z,7.97
2023-02-04T03:24:38.964Z,7.96
2023-02-04T03:25:38.935Z,7.93
2023-02-04T03:26:38.926Z,7.93
2023-02-04T03:27:38.960Z,7.94
2023-02-04T03:28:38.916Z,7.89
2023-02-04T03:29:38.887Z,7.93
2023-02-04T03:30:38.910Z,7.96
2023-02-04T03:31:38.991Z,7.93
2023-02-04T03:32:38.847Z,7.97
2023-02-04T03:33:38.836Z,7.94
2023-02-04T03:34:38.838Z,7.90
2023-02-04T03:35:38.808Z,7.85
2023-02-04T03:36:38.798Z,7.84
2023-02-04T03:37:38.767Z,7.79
2023-02-04T03:38:38.796Z,7.81
2023-02-04T03:39:38.756Z,7.82
2023-02-04T03:40:38.749Z,7.84
2023-02-04T03:41:38.730Z,7.85
2023-02-04T03:42:38.721Z,7.84
2023-02-04T03:43:38.730Z,7.79
2023-02-04T03:44:38.695Z,7.84
2023-02-04T03:45:45.276Z,7.89
2023-02-04T03:46:39.659Z,7.87
2023-02-04T03:47:38.641Z,7.89
2023-02-04T03:48:38.658Z,7.85
2023-02-04T03:49:38.618Z,7.84
2023-02-04T03:50:38.632Z,7.87
2023-02-04T03:51:38.606Z,7.82
2023-02-04T03:52:38.583Z,7.84
2023-02-04T03:53:38.560Z,7.81
2023-02-04T03:54:38.569Z,7.84
2023-02-04T03:55:38.530Z,7.84
2023-02-04T03:56:38.551Z,7.78
2023-02-04T03:57:38.509Z,7.81
2023-02-04T03:58:38.491Z,7.79
2023-02-04T03:59:38.501Z,7.79
2023-02-04T04:00:38.482Z,7.77
2023-02-04T04:01:38.524Z,7.74
2023-02-04T04:02:38.512Z,7.77
2023-02-04T04:03:38.422Z,7.77
2023-02-04T04:04:38.444Z,7.72
2023-02-04T04:05:38.417Z,7.71
2023-02-04T04:06:38.390Z,7.67
2023-02-04T04:07:38.378Z,7.67
2023-02-04T04:08:38.362Z,7.67
2023-02-04T04:09:38.369Z,7.67
2023-02-04T04:10:38.346Z,7.69
2023-02-04T04:11:38.335Z,7.59
2023-02-04T04:12:38.312Z,7.60
2023-02-04T04:13:38.321Z,7.59
2023-02-04T04:14:38.304Z,7.62
2023-02-04T04:15:38.311Z,7.62
2023-02-04T04:16:38.277Z,7.60
2023-02-04T04:17:38.233Z,7.55
2023-02-04T04:18:38.240Z,7.59
2023-02-04T04:19:38.234Z,7.58
2023-02-04T04:20:38.193Z,7.58
2023-02-04T04:21:38.224Z,7.56
2023-02-04T04:22:38.187Z,7.52
2023-02-04T04:23:38.181Z,7.52
2023-02-04T04:24:38.171Z,7.55
2023-02-04T04:25:38.134Z,7.49
2023-02-04T04:26:38.120Z,7.49
2023-02-04T04:27:38.191Z,7.47
2023-02-04T04:28:38.093Z,7.49
2023-02-04T04:29:38.092Z,7.49
2023-02-04T04:30:38.098Z,7.50
2023-02-04T04:31:38.153Z,7.49
2023-02-04T04:32:38.043Z,7.52
2023-02-04T04:33:38.026Z,7.49
2023-02-04T04:34:38.022Z,7.49
2023-02-04T04:35:37.999Z,7.44
2023-02-04T04:36:38.001Z,7.41
2023-02-04T04:37:37.968Z,7.42
2023-02-04T04:38:37.978Z,7.42
2023-02-04T04:39:37.948Z,7.41
2023-02-04T04:40:37.929Z,7.41
2023-02-04T04:41:37.915Z,7.47
2023-02-04T04:42:37.906Z,7.41
2023-02-04T04:43:37.897Z,7.42
2023-02-04T04:44:37.897Z,7.41
2023-02-04T04:45:37.860Z,7.40
2023-02-04T04:46:37.881Z,7.40
2023-02-04T04:47:37.830Z,7.42
2023-02-04T04:48:37.840Z,7.38
2023-02-04T04:49:37.830Z,7.38
2023-02-04T04:50:37.787Z,7.37
2023-02-04T04:51:37.777Z,7.38
2023-02-04T04:52:37.777Z,7.40
2023-02-04T04:53:37.764Z,7.40
2023-02-04T04:54:37.755Z,7.38
2023-02-04T04:55:37.724Z,7.38
2023-02-04T04:56:37.715Z,7.40
2023-02-04T04:57:37.739Z,7.37
2023-02-04T04:58:37.679Z,7.40
2023-02-04T04:59:37.675Z,7.41
2023-02-04T05:00:37.698Z,7.42
2023-02-04T05:01:37.637Z,7.41
2023-02-04T05:02:37.618Z,7.42
2023-02-04T05:03:37.618Z,7.41
2023-02-04T05:04:37.654Z,7.41
2023-02-04T05:05:37.609Z,7.40
2023-02-04T05:06:37.577Z,7.40
2023-02-04T05:07:37.564Z,7.41
2023-02-04T05:08:37.541Z,7.38
2023-02-04T05:09:37.579Z,7.38
2023-02-04T05:10:37.525Z,7.35
2023-02-04T05:11:37.513Z,7.40
2023-02-04T05:12:37.505Z,7.37
2023-02-04T05:13:37.484Z,7.38
2023-02-04T05:14:37.464Z,7.38
2023-02-04T05:15:37.487Z,7.37
2023-02-04T05:16:37.463Z,7.34
2023-02-04T05:17:37.430Z,7.34
2023-02-04T05:18:37.421Z,7.32
2023-02-04T05:19:37.425Z,7.31
2023-02-04T05:20:37.399Z,7.35
2023-02-04T05:21:37.379Z,7.32
2023-02-04T05:22:37.363Z,7.32
2023-02-04T05:23:37.375Z,7.34
2023-02-04T05:24:37.335Z,7.27
2023-02-04T05:25:37.344Z,7.27
2023-02-04T05:26:37.305Z,7.26
2023-02-04T05:27:37.301Z,7.32
2023-02-04T05:28:37.289Z,7.34
2023-02-04T05:29:37.265Z,7.34
2023-02-04T05:30:37.291Z,7.27
2023-02-04T05:31:37.298Z,7.32
2023-02-04T05:32:37.226Z,7.27
2023-02-04T05:33:37.217Z,7.31
2023-02-04T05:34:38.640Z,7.32
2023-02-04T05:35:37.207Z,7.35
2023-02-04T05:36:37.168Z,7.38
2023-02-04T05:37:37.168Z,7.38
2023-02-04T05:38:37.145Z,7.38
2023-02-04T05:39:37.136Z,7.38
2023-02-04T05:40:37.137Z,7.41
2023-02-04T05:41:37.108Z,7.38
2023-02-04T05:42:37.088Z,7.37
2023-02-04T05:43:37.075Z,7.34
2023-02-04T05:44:37.065Z,7.37
2023-02-04T05:45:37.161Z,7.34
2023-02-04T05:46:37.036Z,7.35
2023-02-04T05:47:37.034Z,7.34
2023-02-04T05:48:37.009Z,7.32
2023-02-04T05:49:36.995Z,7.31
2023-02-04T05:50:36.996Z,7.29
2023-02-04T05:51:36.971Z,7.24
2023-02-04T05:52:36.956Z,7.23
2023-02-04T05:53:36.945Z,7.22
2023-02-04T05:54:36.924Z,7.20
2023-02-04T05:55:36.931Z,7.23
2023-02-04T05:56:36.916Z,7.24
2023-02-04T05:57:36.886Z,7.27
2023-02-04T05:58:38.252Z,7.26
2023-02-04T05:59:36.866Z,7.22
2023-02-04T06:00:36.874Z,7.26
2023-02-04T06:01:36.825Z,7.24
2023-02-04T06:02:36.814Z,7.24
2023-02-04T06:03:36.898Z,7.23
2023-02-04T06:04:36.826Z,7.22
2023-02-04T06:05:36.796Z,7.26
2023-02-04T06:06:36.786Z,7.29
2023-02-04T06:07:36.774Z,7.31
2023-02-04T06:08:36.734Z,7.29
2023-02-04T06:09:36.743Z,7.32
2023-02-04T06:10:36.730Z,7.31
2023-02-04T06:11:36.698Z,7.34
2023-02-04T06:12:36.710Z,7.31
2023-02-04T06:13:36.667Z,7.31
2023-02-04T06:14:36.657Z,7.29
2023-02-04T06:15:36.685Z,7.32
2023-02-04T06:16:36.676Z,7.29
2023-02-04T06:17:36.668Z,7.27
2023-02-04T06:18:36.596Z,7.27
2023-02-04T06:19:36.600Z,7.26
2023-02-04T06:20:36.593Z,7.27
2023-02-04T06:21:36.567Z,7.27
2023-02-04T06:22:36.546Z,7.31
2023-02-04T06:23:36.544Z,7.31
2023-02-04T06:24:36.527Z,7.32
2023-02-04T06:25:36.545Z,7.34
2023-02-04T06:26:36.498Z,7.34
2023-02-04T06:27:36.536Z,7.31
2023-02-04T06:28:36.466Z,7.35
2023-02-04T06:29:36.472Z,7.31
2023-02-04T06:30:36.861Z,7.29
2023-02-04T06:31:36.473Z,7.27
2023-02-04T06:32:36.424Z,7.31
2023-02-04T06:33:36.417Z,7.31
2023-02-04T06:34:36.386Z,7.32
2023-02-04T06:35:36.422Z,7.32
2023-02-04T06:36:36.362Z,7.32
2023-02-04T06:37:36.373Z,7.32
2023-02-04T06:38:36.328Z,7.29
2023-02-04T06:39:36.343Z,7.27
2023-02-04T06:40:36.326Z,7.31
2023-02-04T06:41:36.297Z,7.32
2023-02-04T06:42:36.277Z,7.29
2023-02-04T06:43:36.286Z,7.27
2023-02-04T06:44:36.264Z,7.27
2023-02-04T06:45:36.258Z,7.31
2023-02-04T06:46:36.245Z,7.31
2023-02-04T06:47:36.241Z,7.32
2023-02-04T06:48:36.221Z,7.35
2023-02-04T06:49:36.201Z,7.35
2023-02-04T06:50:36.197Z,7.32
2023-02-04T06:51:36.168Z,7.29
2023-02-04T06:52:36.141Z,7.29
2023-02-04T06:53:36.136Z,7.34
2023-02-04T06:54:36.125Z,7.29
2023-02-04T06:55:36.139Z,7.32
2023-02-04T06:56:36.097Z,7.32
2023-02-04T06:57:36.081Z,7.32
2023-02-04T06:58:36.071Z,7.32
2023-02-04T06:59:36.073Z,7.26
2023-02-04T07:00:36.030Z,7.26
2023-02-04T07:01:36.076Z,7.23
2023-02-04T07:02:36.068Z,7.26
2023-02-04T07:03:36.039Z,7.27
2023-02-04T07:04:35.982Z,7.31
2023-02-04T07:05:35.982Z,7.31
2023-02-04T07:06:35.981Z,7.31
2023-02-04T07:07:35.941Z,7.31
2023-02-04T07:08:35.933Z,7.26
2023-02-04T07:09:35.920Z,7.29
2023-02-04T07:10:36.096Z,7.27
2023-02-04T07:11:35.922Z,7.32
2023-02-04T07:12:35.893Z,7.31
2023-02-04T07:13:35.869Z,7.31
2023-02-04T07:14:35.857Z,7.26
2023-02-04T07:15:35.892Z,7.23
2023-02-04T07:16:35.832Z,7.23
2023-02-04T07:17:35.832Z,7.23
2023-02-04T07:18:35.811Z,7.27
2023-02-04T07:19:35.802Z,7.27
2023-02-04T07:20:35.948Z,7.27
2023-02-04T07:21:35.776Z,7.29
2023-02-04T07:22:35.751Z,7.31
2023-02-04T07:23:35.740Z,7.29
2023-02-04T07:24:35.722Z,7.31
2023-02-04T07:25:35.745Z,7.24
2023-02-04T07:26:35.709Z,7.32
2023-02-04T07:27:39.320Z,7.29
2023-02-04T07:28:45.365Z,7.29
2023-02-04T07:29:35.654Z,7.32
2023-02-04T07:30:36.057Z,7.26
2023-02-04T07:31:35.759Z,7.27
2023-02-04T07:32:35.618Z,7.27
2023-02-04T07:33:35.604Z,7.26
2023-02-04T07:34:35.587Z,7.26
2023-02-04T07:35:35.604Z,7.20
2023-02-04T07:36:35.588Z,7.22
2023-02-04T07:37:35.556Z,7.22
2023-02-04T07:38:35.532Z,7.23
2023-02-04T07:39:35.521Z,7.23
2023-02-04T07:40:35.503Z,7.20
2023-02-04T07:41:35.511Z,7.16
2023-02-04T07:42:35.485Z,7.17
2023-02-04T07:43:35.470Z,7.22
2023-02-04T07:44:35.446Z,7.23
2023-02-04T07:45:35.438Z,7.22
2023-02-04T07:46:35.498Z,7.23
2023-02-04T07:47:35.407Z,7.24
2023-02-04T07:48:35.434Z,7.24
2023-02-04T07:49:35.378Z,7.17
2023-02-04T07:50:35.628Z,7.16
2023-02-04T07:51:35.370Z,7.19
2023-02-04T07:52:35.366Z,7.19
2023-02-04T07:53:35.325Z,7.24
2023-02-04T07:54:35.309Z,7.29
2023-02-04T07:55:35.315Z,7.26
2023-02-04T07:56:35.295Z,7.31
2023-02-04T07:57:35.283Z,7.29
2023-02-04T07:58:35.271Z,7.32
2023-02-04T07:59:35.235Z,7.32
2023-02-04T08:00:35.225Z,7.38
2023-02-04T08:01:35.321Z,7.35
2023-02-04T08:02:35.196Z,7.37
2023-02-04T08:03:37.040Z,7.40
2023-02-04T08:04:35.168Z,7.37
2023-02-04T08:05:35.184Z,7.37
2023-02-04T08:06:35.145Z,7.35
2023-02-04T08:07:35.143Z,7.37
2023-02-04T08:08:35.125Z,7.35
2023-02-04T08:09:35.108Z,7.35
2023-02-04T08:10:35.084Z,7.40
2023-02-04T08:11:35.073Z,7.40
2023-02-04T08:12:35.083Z,7.40
2023-02-04T08:13:35.054Z,7.42
2023-02-04T08:14:35.024Z,7.40
2023-02-04T08:15:35.057Z,7.44
2023-02-04T08:16:35.001Z,7.44
2023-02-04T08:17:35.014Z,7.44
2023-02-04T08:18:34.978Z,7.47
2023-02-04T08:19:34.985Z,7.41
2023-02-04T08:20:35.035Z,7.40
2023-02-04T08:21:34.936Z,7.41
2023-02-04T08:22:34.942Z,7.37
2023-02-04T08:23:34.913Z,7.40
2023-02-04T08:24:34.901Z,7.41
2023-02-04T08:25:34.888Z,7.45
2023-02-04T08:26:34.872Z,7.52
2023-02-04T08:27:34.874Z,7.52
2023-02-04T08:28:34.851Z,7.52
2023-02-04T08:29:34.821Z,7.55
2023-02-04T08:30:35.196Z,7.59
2023-02-04T08:31:34.858Z,7.60
2023-02-04T08:32:34.812Z,7.59
2023-02-04T08:33:34.783Z,7.53
2023-02-04T08:34:34.768Z,7.50
2023-02-04T08:35:34.741Z,7.49
2023-02-04T08:36:34.749Z,7.42
2023-02-04T08:37:34.732Z,7.44
2023-02-04T08:38:34.701Z,7.49
2023-02-04T08:39:34.681Z,7.52
2023-02-04T08:40:34.826Z,7.50
2023-02-04T08:41:34.669Z,7.53
2023-02-04T08:42:34.672Z,7.63
2023-02-04T08:43:34.633Z,7.63
2023-02-04T08:44:34.647Z,7.63
2023-02-04T08:45:34.628Z,7.71
2023-02-04T08:46:34.707Z,7.74
2023-02-04T08:47:34.621Z,7.71
2023-02-04T08:48:34.595Z,7.74
2023-02-04T08:49:34.582Z,7.81
2023-02-04T08:50:34.754Z,7.89
2023-02-04T08:51:34.539Z,7.92
2023-02-04T08:52:34.539Z,7.97
2023-02-04T08:53:34.544Z,8.03
2023-02-04T08:54:34.506Z,8.02
2023-02-04T08:55:34.500Z,8.08
2023-02-04T08:56:34.934Z,8.10
2023-02-04T08:57:34.473Z,8.03
2023-02-04T08:58:34.485Z,8.07
2023-02-04T08:59:34.439Z,8.12
2023-02-04T09:00:34.816Z,8.17
2023-02-04T09:01:34.424Z,8.12
2023-02-04T09:02:34.410Z,8.12
2023-02-04T09:03:34.411Z,8.08
2023-02-04T09:04:34.384Z,8.04
2023-02-04T09:05:34.362Z,8.03
2023-02-04T09:06:34.353Z,8.03
2023-02-04T09:07:34.343Z,8.03
2023-02-04T09:08:34.358Z,8.02
2023-02-04T09:09:34.304Z,8.04
2023-02-04T09:10:34.590Z,8.02
2023-02-04T09:11:34.299Z,7.99
2023-02-04T09:12:34.295Z,7.96
2023-02-04T09:13:34.278Z,7.99
2023-02-04T09:14:34.247Z,7.93
2023-02-04T09:15:34.228Z,7.94
2023-02-04T09:16:34.320Z,7.93
2023-02-04T09:17:34.210Z,7.99
2023-02-04T09:18:34.246Z,8.02
2023-02-04T09:19:34.189Z,7.99
2023-02-04T09:20:34.413Z,8.02
2023-02-04T09:21:34.178Z,8.03
2023-02-04T09:22:34.150Z,8.08
2023-02-04T09:23:34.150Z,8.15
2023-02-04T09:24:34.134Z,8.22
2023-02-04T09:25:34.104Z,8.21
2023-02-04T09:26:34.094Z,8.26
2023-02-04T09:27:34.084Z,8.28
2023-02-04T09:28:34.080Z,8.28
2023-02-04T09:29:34.065Z,8.32
2023-02-04T09:30:34.447Z,8.30
2023-02-04T09:31:34.150Z,8.29
2023-02-04T09:32:34.028Z,8.29
2023-02-04T09:33:34.013Z,8.30
2023-02-04T09:34:34.002Z,8.35
2023-02-04T09:35:33.975Z,8.36
2023-02-04T09:36:33.965Z,8.45
2023-02-04T09:37:33.949Z,8.42
2023-02-04T09:38:33.961Z,8.35
2023-02-04T09:39:33.920Z,8.32
2023-02-04T09:40:34.042Z,8.37
2023-02-04T09:41:33.951Z,8.40
2023-02-04T09:42:33.883Z,8.45
2023-02-04T09:43:33.890Z,8.37
2023-02-04T09:44:33.880Z,8.40
2023-02-04T09:45:33.910Z,8.42
2023-02-04T09:46:33.836Z,8.47
2023-02-04T09:47:33.829Z,8.50
2023-02-04T09:48:33.842Z,8.47
2023-02-04T09:49:33.790Z,8.53
2023-02-04T09:50:34.332Z,8.53
2023-02-04T09:51:33.764Z,8.57
2023-02-04T09:52:33.751Z,8.62
2023-02-04T09:53:33.760Z,8.60
2023-02-04T09:54:33.717Z,8.65
2023-02-04T09:55:33.708Z,8.60
2023-02-04T09:56:33.681Z,8.66
2023-02-04T09:57:33.671Z,8.57
2023-02-04T09:58:33.678Z,8.53
2023-02-04T09:59:33.628Z,8.53
2023-02-04T10:00:33.884Z,8.51
2023-02-04T10:01:33.605Z,8.53
2023-02-04T10:02:33.600Z,8.53
2023-02-04T10:03:33.620Z,8.53
2023-02-04T10:04:34.049Z,8.53
2023-02-04T10:05:33.738Z,8.51
2023-02-04T10:06:33.545Z,8.53
2023-02-04T10:07:33.525Z,8.57
2023-02-04T10:08:33.524Z,8.60
2023-02-04T10:09:33.500Z,8.57
2023-02-04T10:10:33.700Z,8.63
2023-02-04T10:11:33.459Z,8.69
2023-02-04T10:12:33.468Z,8.63
2023-02-04T10:13:33.438Z,8.68
2023-02-04T10:14:33.455Z,8.66
2023-02-04T10:15:33.407Z,8.71
2023-02-04T10:16:33.464Z,8.73
2023-02-04T10:17:33.433Z,8.76
2023-02-04T10:18:33.367Z,8.75
2023-02-04T10:19:33.369Z,8.73
2023-02-04T10:20:33.595Z,8.75
2023-02-04T10:21:33.330Z,8.81
2023-02-04T10:22:33.311Z,8.81
2023-02-04T10:23:33.310Z,8.81
2023-02-04T10:24:33.297Z,8.71
2023-02-04T10:25:33.270Z,8.71
2023-02-04T10:26:33.256Z,8.63
2023-02-04T10:27:33.240Z,8.57
2023-02-04T10:28:33.237Z,8.55
2023-02-04T10:29:33.259Z,8.58
2023-02-04T10:30:33.652Z,8.51
2023-02-04T10:31:33.364Z,8.54
2023-02-04T10:32:33.197Z,8.55
2023-02-04T10:33:33.182Z,8.55
2023-02-04T10:34:33.168Z,8.54
2023-02-04T10:35:33.142Z,8.58
2023-02-04T10:36:33.143Z,8.57
2023-02-04T10:37:33.108Z,8.55
2023-02-04T10:38:33.111Z,8.54
2023-02-04T10:39:33.113Z,8.55
2023-02-04T10:40:33.372Z,8.53
2023-02-04T10:41:33.067Z,8.54
2023-02-04T10:42:33.049Z,8.57
2023-02-04T10:43:33.032Z,8.65
2023-02-04T10:44:33.049Z,8.66
2023-02-04T10:45:32.995Z,8.72
2023-02-04T10:46:32.997Z,8.72
2023-02-04T10:47:32.984Z,8.76
2023-02-04T10:48:32.956Z,8.73
2023-02-04T10:49:32.989Z,8.76
2023-02-04T10:50:33.200Z,8.79
2023-02-04T10:51:32.929Z,8.83
2023-02-04T10:52:32.916Z,8.86
2023-02-04T10:53:32.888Z,8.79
2023-02-04T10:54:32.915Z,8.81
2023-02-04T10:55:32.868Z,8.88
2023-02-04T10:56:32.862Z,8.90
2023-02-04T10:57:32.850Z,8.90
2023-02-04T10:58:32.840Z,8.91
2023-02-04T10:59:32.831Z,8.94
2023-02-04T11:00:33.052Z,9.01
2023-02-04T11:01:32.821Z,9.09
2023-02-04T11:02:32.787Z,9.12
2023-02-04T11:03:32.814Z,9.15
2023-02-04T11:04:32.752Z,9.21
2023-02-04T11:05:32.774Z,9.15
2023-02-04T11:06:32.736Z,9.16
2023-02-04T11:07:32.731Z,9.23
2023-02-04T11:08:32.703Z,9.32
2023-02-04T11:09:32.681Z,9.39
2023-02-04T11:10:32.996Z,9.42
2023-02-04T11:11:32.677Z,9.48
2023-02-04T11:12:32.656Z,9.53
2023-02-04T11:13:32.632Z,9.60
2023-02-04T11:14:32.640Z,9.61
2023-02-04T11:15:32.637Z,9.60
2023-02-04T11:16:32.609Z,9.60
2023-02-04T11:17:32.575Z,9.60
2023-02-04T11:18:32.562Z,9.63
2023-02-04T11:19:32.542Z,9.58
2023-02-04T11:20:32.870Z,9.56
2023-02-04T11:21:32.512Z,9.56
2023-02-04T11:22:32.503Z,9.63
2023-02-04T11:23:32.598Z,9.63
2023-02-04T11:24:32.483Z,9.61
2023-02-04T11:25:32.716Z,9.64
2023-02-04T11:26:32.456Z,9.63
2023-02-04T11:27:32.434Z,9.64
2023-02-04T11:28:32.444Z,9.64
2023-02-04T11:29:32.413Z,9.75
2023-02-04T11:30:32.550Z,9.76
2023-02-04T11:31:32.504Z,9.71
2023-02-04T11:32:32.382Z,9.73
2023-02-04T11:33:32.377Z,9.75
2023-02-04T11:34:32.368Z,9.66
2023-02-04T11:35:32.583Z,9.68
2023-02-04T11:36:32.313Z,9.71
2023-02-04T11:37:32.306Z,9.76
2023-02-04T11:38:32.284Z,9.86
2023-02-04T11:39:32.279Z,9.97
2023-02-04T11:40:32.275Z,10.01
2023-02-04T11:41:32.274Z,10.03
2023-02-04T11:42:32.237Z,10.10
2023-02-04T11:43:32.236Z,10.19
2023-02-04T11:44:32.219Z,10.25
2023-02-04T11:45:32.519Z,10.28
2023-02-04T11:46:32.271Z,10.32
2023-02-04T11:47:32.152Z,10.34
2023-02-04T11:48:32.172Z,10.42
2023-02-04T11:49:32.131Z,10.46
2023-02-04T11:50:32.141Z,10.52
2023-02-04T11:51:32.133Z,10.52
2023-02-04T11:52:32.092Z,10.53
2023-02-04T11:53:32.117Z,10.55
2023-02-04T11:54:32.065Z,10.55
2023-02-04T11:55:32.254Z,10.55
2023-02-04T11:56:32.067Z,10.56
2023-02-04T11:57:32.024Z,10.53
2023-02-04T11:58:32.034Z,10.46
2023-02-04T11:59:32.004Z,10.44
2023-02-04T12:00:31.993Z,10.34
2023-02-04T12:01:31.996Z,10.26
2023-02-04T12:02:32.016Z,10.19
2023-02-04T12:03:31.946Z,10.06
2023-02-04T12:04:31.941Z,10.06
2023-02-04T12:05:32.177Z,10.03
2023-02-04T12:06:31.925Z,10.06
2023-02-04T12:07:31.887Z,10.10
2023-02-04T12:08:31.886Z,10.12
2023-02-04T12:09:31.872Z,10.21
2023-02-04T12:10:31.857Z,10.28
2023-02-04T12:11:31.857Z,10.36
2023-02-04T12:12:31.847Z,10.43
2023-02-04T12:13:31.812Z,10.33
2023-02-04T12:14:31.800Z,10.30
2023-02-04T12:15:32.088Z,10.37
2023-02-04T12:16:31.791Z,10.46
2023-02-04T12:17:31.780Z,10.53
2023-02-04T12:18:31.752Z,10.62
2023-02-04T12:19:31.719Z,10.66
2023-02-04T12:20:31.725Z,10.71
2023-02-04T12:21:31.720Z,10.71
2023-02-04T12:22:31.711Z,10.74
2023-02-04T12:23:31.675Z,10.80
2023-02-04T12:24:31.672Z,10.83
2023-02-04T12:25:31.961Z,10.80
2023-02-04T12:26:31.662Z,10.84
2023-02-04T12:27:31.645Z,10.86
2023-02-04T12:28:31.603Z,10.83
2023-02-04T12:29:31.600Z,10.77
2023-02-04T12:30:31.580Z,10.74
2023-02-04T12:31:31.664Z,10.47
2023-02-04T12:32:31.572Z,10.51
2023-02-04T12:33:31.540Z,10.58
2023-02-04T12:34:31.541Z,10.62
2023-02-04T12:35:31.825Z,10.74
2023-02-04T12:36:31.500Z,10.74
2023-02-04T12:37:31.521Z,10.76
2023-02-04T12:38:31.459Z,10.76
2023-02-04T12:39:31.451Z,10.73
2023-02-04T12:40:31.440Z,10.71
2023-02-04T12:41:31.445Z,10.66
2023-02-04T12:42:31.438Z,10.77
2023-02-04T12:43:31.422Z,10.80
2023-02-04T12:44:31.383Z,10.81
2023-02-04T12:45:31.610Z,10.86
2023-02-04T12:46:31.384Z,10.80
2023-02-04T12:47:31.368Z,10.78
2023-02-04T12:48:31.358Z,10.81
2023-02-04T12:49:31.320Z,10.84
2023-02-04T12:50:31.307Z,10.92
2023-02-04T12:51:31.292Z,11.02
2023-02-04T12:52:31.298Z,11.09
2023-02-04T12:53:31.269Z,11.14
2023-02-04T12:54:31.253Z,11.16
2023-02-04T12:55:31.530Z,11.16
2023-02-04T12:56:31.221Z,11.09
2023-02-04T12:57:31.231Z,11.01
2023-02-04T12:58:31.189Z,10.96
2023-02-04T12:59:31.180Z,10.88
2023-02-04T13:00:31.212Z,10.86
2023-02-04T13:01:31.160Z,10.80
2023-02-04T13:02:31.150Z,10.65
2023-02-04T13:03:31.145Z,10.62
2023-02-04T13:04:31.111Z,10.62
2023-02-04T13:05:31.514Z,10.63
2023-02-04T13:06:31.092Z,10.62
2023-02-04T13:07:31.082Z,10.60
2023-02-04T13:08:31.079Z,10.60
2023-02-04T13:09:31.053Z,10.63
2023-02-04T13:10:31.033Z,10.58
2023-02-04T13:11:31.021Z,10.58
2023-02-04T13:12:31.001Z,10.46
2023-02-04T13:13:31.012Z,10.46
2023-02-04T13:14:30.985Z,10.46
2023-02-04T13:15:31.426Z,10.46
2023-02-04T13:16:31.048Z,10.52